Time;durP1;ratioP1;P1;durP2;ratioP2;P2;SDS_P1;SDS_P2;PMS_P1;PMS_P2;Temp;Humidity;BMP_temperature;BMP_pressure;BME280_temperature;BME280_humidity;BME280_pressure;Samples;Min_cycle;Max_cycle;Signal;HPM_P1;HPM_P2
2022/08/28 00:01:01;;;;;;;14.23;8.43;;;;;;;18.23;100.00;100301.72;20843962;28;20448;-78
2022/08/28 00:11:03;;;;;;;11.48;7.90;;;;;;;18.20;100.00;100291.25;20847061;28;20137;-78
2022/08/28 00:21:04;;;;;;;14.20;8.27;;;;;;;18.13;100.00;100298.66;20797256;28;20050;-77
2022/08/28 00:31:06;;;;;;;12.70;7.32;;;;;;;18.09;100.00;100299.75;20728086;28;20049;-77
2022/08/28 00:41:07;;;;;;;13.52;7.43;;;;;;;18.00;100.00;100305.47;20729325;28;20112;-78
2022/08/28 01:01:32;;;;;;;12.80;7.20;;;;;;;17.92;100.00;100307.66;20745176;28;20293;-77
2022/08/28 01:11:33;;;;;;;11.82;7.25;;;;;;;17.91;100.00;100300.63;20743816;28;20482;-78
2022/08/28 01:21:35;;;;;;;10.35;7.30;;;;;;;17.80;100.00;100302.91;20742318;28;20052;-78
2022/08/28 01:31:37;;;;;;;11.65;7.95;;;;;;;17.78;100.00;100305.66;20742235;28;20052;-78
2022/08/28 01:41:38;;;;;;;9.77;6.65;;;;;;;17.90;100.00;100312.16;20742881;28;20096;-78
2022/08/28 01:51:40;;;;;;;12.73;6.65;;;;;;;18.11;100.00;100305.84;20741599;28;20128;-78
2022/08/28 02:01:42;;;;;;;11.20;6.50;;;;;;;18.29;100.00;100312.00;20741559;28;20045;-78
2022/08/28 02:11:43;;;;;;;11.38;6.30;;;;;;;18.37;100.00;100316.94;20753300;28;20061;-78
2022/08/28 02:21:47;;;;;;;10.07;5.97;;;;;;;18.33;100.00;100310.06;20757718;28;20421;-78
2022/08/28 02:31:48;;;;;;;8.50;5.28;;;;;;;18.38;100.00;100316.00;20754824;28;20062;-78
2022/08/28 02:41:49;;;;;;;9.75;5.78;;;;;;;18.48;100.00;100311.09;20755159;28;20052;-78
2022/08/28 02:51:51;;;;;;;9.35;5.78;;;;;;;18.47;100.00;100312.91;20737501;28;20049;-78
2022/08/28 03:01:54;;;;;;;11.00;5.20;;;;;;;18.45;100.00;100304.19;20753818;28;20042;-78
2022/08/28 03:11:55;;;;;;;14.52;5.70;;;;;;;18.45;100.00;100298.88;20753128;28;20056;-77
2022/08/28 03:21:57;;;;;;;7.32;4.63;;;;;;;18.44;100.00;100302.44;20751385;28;20042;-77
2022/08/28 03:31:59;;;;;;;8.43;5.20;;;;;;;18.39;100.00;100305.31;20760823;28;20056;-77
2022/08/28 03:42:00;;;;;;;10.85;5.13;;;;;;;18.44;100.00;100311.28;20734552;28;20046;-77
2022/08/28 03:52:01;;;;;;;10.05;4.85;;;;;;;18.30;100.00;100312.88;20751230;28;20057;-78
2022/08/28 04:02:03;;;;;;;9.07;4.65;;;;;;;18.31;100.00;100319.91;20749925;28;20049;-78
2022/08/28 04:12:04;;;;;;;8.95;4.78;;;;;;;18.28;100.00;100326.19;20748794;28;20061;-78
2022/08/28 04:22:07;;;;;;;9.10;5.45;;;;;;;18.19;100.00;100322.19;20749305;28;20045;-77
2022/08/28 04:32:08;;;;;;;9.93;5.03;;;;;;;18.03;100.00;100330.97;20741264;28;20054;-78
2022/08/28 04:42:10;;;;;;;9.82;4.90;;;;;;;18.16;100.00;100327.66;20745855;28;20600;-78
2022/08/28 04:52:11;;;;;;;9.30;4.80;;;;;;;18.13;100.00;100341.06;20744226;28;20096;-78
2022/08/28 05:02:12;;;;;;;11.10;4.80;;;;;;;18.19;100.00;100343.41;20743139;28;20054;-78
2022/08/28 05:12:16;;;;;;;11.35;4.60;;;;;;;18.19;100.00;100348.69;20743638;28;20050;-78
2022/08/28 05:22:17;;;;;;;10.13;4.68;;;;;;;18.17;100.00;100350.59;20725549;28;20096;-77
2022/08/28 05:32:18;;;;;;;7.70;4.03;;;;;;;18.12;100.00;100365.00;20742062;28;20071;-78
2022/08/28 05:42:20;;;;;;;7.80;4.80;;;;;;;18.27;100.00;100366.03;20724589;28;20050;-78
2022/08/28 05:52:22;;;;;;;8.25;4.50;;;;;;;18.34;100.00;100372.75;20742108;28;20045;-78
2022/08/28 06:02:24;;;;;;;9.82;4.82;;;;;;;18.62;100.00;100378.44;20765621;28;20125;-77
2022/08/28 06:23:09;;;;;;;9.32;4.32;;;;;;;19.23;100.00;100383.34;20834968;23;20050;-66
2022/08/28 06:33:11;;;;;;;9.27;4.68;;;;;;;19.27;100.00;100384.03;20816641;28;20053;-68
2022/08/28 06:43:12;;;;;;;9.32;4.88;;;;;;;19.41;100.00;100394.78;20816174;28;20060;-69
2022/08/28 06:53:14;;;;;;;10.18;4.35;;;;;;;19.40;100.00;100402.81;20818008;28;20050;-68
2022/08/28 07:03:15;;;;;;;9.07;3.80;;;;;;;19.51;100.00;100400.47;20830826;28;20548;-68
2022/08/28 07:13:17;;;;;;;8.73;4.50;;;;;;;20.05;100.00;100411.75;20829854;28;20046;-69
2022/08/28 07:23:19;;;;;;;8.45;3.97;;;;;;;20.11;100.00;100427.38;20829594;28;20049;-68
2022/08/28 07:33:20;;;;;;;7.72;4.70;;;;;;;19.89;100.00;100429.50;20829242;28;20611;-68
2022/08/28 07:53:42;;;;;;;9.98;4.90;;;;;;;20.66;100.00;100434.97;20827536;28;20533;-68
2022/08/28 08:03:43;;;;;;;8.70;4.57;;;;;;;21.17;99.95;100446.19;20826197;28;20054;-68
2022/08/28 08:13:44;;;;;;;8.27;4.50;;;;;;;21.10;97.38;100454.63;20826247;28;20046;-68
2022/08/28 08:23:46;;;;;;;10.57;4.53;;;;;;;21.20;97.80;100456.66;20825490;28;20493;-68
2022/08/28 08:33:47;;;;;;;9.52;4.25;;;;;;;21.12;98.01;100455.41;20824328;28;20050;-68
2022/08/28 08:43:48;;;;;;;10.63;4.53;;;;;;;21.86;95.11;100462.53;20823230;28;20045;-68
2022/08/28 08:53:50;;;;;;;10.27;5.10;;;;;;;21.91;92.79;100473.78;20822360;28;20043;-68
2022/08/28 09:03:51;;;;;;;11.27;4.38;;;;;;;22.42;92.39;100479.47;20821574;28;20100;-68
2022/08/28 09:13:54;;;;;;;8.77;4.47;;;;;;;21.99;93.68;100482.13;20821236;28;20293;-68
2022/08/28 09:23:55;;;;;;;11.52;4.95;;;;;;;22.28;90.40;100481.22;20819977;28;20077;-68
2022/08/28 09:33:59;;;;;;;8.45;3.92;;;;;;;22.24;88.95;100487.69;20820079;28;20084;-68
2022/08/28 09:44:00;;;;;;;8.32;4.20;;;;;;;22.13;90.57;100495.50;20818869;28;20049;-68
2022/08/28 09:54:01;;;;;;;9.38;4.63;;;;;;;22.45;89.65;100484.63;20818478;28;20103;-68
2022/08/28 10:04:03;;;;;;;11.73;5.50;;;;;;;22.22;89.45;100486.94;20818117;28;20429;-68
2022/08/28 10:14:05;;;;;;;10.27;5.03;;;;;;;22.48;90.95;100490.63;20817925;28;20544;-68
2022/08/28 10:24:07;;;;;;;14.50;5.70;;;;;;;22.42;89.74;100490.16;20817675;28;20045;-68
2022/08/28 10:34:09;;;;;;;11.77;5.13;;;;;;;23.33;85.48;100485.09;20831029;28;20092;-69
2022/08/28 10:44:11;;;;;;;7.70;5.05;;;;;;;23.71;82.08;100472.69;20832704;28;20089;-69
2022/08/28 10:54:12;;;;;;;8.35;5.10;;;;;;;24.10;80.45;100472.66;20832319;28;20054;-69
2022/08/28 11:04:14;;;;;;;9.55;5.80;;;;;;;23.90;79.09;100471.41;20831166;28;20045;-68
2022/08/28 11:14:24;;;;;;;9.85;6.03;;;;;;;23.82;79.54;100469.28;20830782;28;20053;-69
2022/08/28 11:24:26;;;;;;;12.70;6.13;;;;;;;23.38;81.70;100474.97;20830144;28;20068;-68
2022/08/28 11:34:28;;;;;;;14.35;6.18;;;;;;;23.68;82.32;100462.22;20828705;28;20049;-68
2022/08/28 11:44:29;;;;;;;10.35;5.63;;;;;;;23.87;78.24;100469.81;20827708;28;20050;-69
2022/08/28 11:54:30;;;;;;;11.73;5.80;;;;;;;23.66;80.86;100464.13;20827690;28;20084;-69
2022/08/28 12:04:32;;;;;;;10.48;5.25;;;;;;;24.17;76.75;100460.59;20826643;28;20052;-69
2022/08/28 12:14:33;;;;;;;7.72;4.93;;;;;;;24.09;78.36;100463.78;20826195;28;20103;-69
2022/08/28 12:24:35;;;;;;;9.05;5.40;;;;;;;24.83;72.47;100446.81;20824564;28;20076;-69
2022/08/28 12:34:36;;;;;;;9.85;5.22;;;;;;;25.08;71.53;100434.28;20824268;28;20045;-69
2022/08/28 12:44:37;;;;;;;9.10;5.18;;;;;;;25.30;53.24;100438.88;20823906;28;20067;-68
2022/08/28 12:54:39;;;;;;;9.63;4.63;;;;;;;25.19;54.57;100430.78;20822302;28;20050;-69
2022/08/28 13:04:41;;;;;;;7.60;5.15;;;;;;;25.17;54.59;100425.56;20821765;28;20056;-69
2022/08/28 13:14:42;;;;;;;7.45;4.97;;;;;;;25.36;54.87;100410.75;20821166;28;20060;-69
2022/08/28 13:24:44;;;;;;;6.20;4.30;;;;;;;25.57;53.03;100403.69;20821265;28;20061;-69
2022/08/28 13:34:45;;;;;;;8.27;5.15;;;;;;;25.53;53.97;100399.53;20819446;28;20049;-69
2022/08/28 13:44:49;;;;;;;7.55;4.85;;;;;;;25.55;53.28;100394.94;20819687;28;20536;-69
2022/08/28 13:54:50;;;;;;;8.15;5.05;;;;;;;25.40;52.78;100386.25;20819767;28;20072;-69
2022/08/28 14:04:52;;;;;;;6.35;3.92;;;;;;;25.35;52.33;100383.09;20817885;28;20054;-69
2022/08/28 14:14:53;;;;;;;6.68;4.35;;;;;;;25.53;50.98;100376.25;20818254;28;20115;-69
2022/08/28 14:24:55;;;;;;;6.85;3.95;;;;;;;25.74;50.79;100372.88;20817213;28;20418;-69
2022/08/28 14:34:56;;;;;;;8.10;4.32;;;;;;;25.88;50.81;100363.78;20815671;28;20049;-69
2022/08/28 14:44:58;;;;;;;8.13;4.43;;;;;;;25.38;51.48;100349.81;20816324;28;20056;-69
2022/08/28 14:54:59;;;;;;;7.38;4.30;;;;;;;25.57;49.17;100352.75;20816326;28;20057;-68
2022/08/28 15:05:00;;;;;;;9.35;4.57;;;;;;;25.65;48.95;100347.63;20815270;28;20529;-69
2022/08/28 15:15:02;;;;;;;9.00;3.88;;;;;;;25.76;48.33;100350.34;20819756;28;20049;-68
2022/08/28 15:25:04;;;;;;;6.20;3.92;;;;;;;25.62;47.94;100339.84;20830661;28;20410;-68
2022/08/28 15:35:06;;;;;;;10.20;4.38;;;;;;;25.61;48.08;100329.22;20828619;28;20063;-68
2022/08/28 15:45:07;;;;;;;12.48;4.40;;;;;;;25.67;48.33;100329.59;20829257;28;20099;-68
2022/08/28 15:55:09;;;;;;;7.32;3.70;;;;;;;25.75;48.54;100331.66;20827963;28;20060;-68
2022/08/28 16:05:10;;;;;;;8.40;4.05;;;;;;;25.70;46.87;100340.09;20841828;28;20064;-68
2022/08/28 16:15:11;;;;;;;6.22;3.50;;;;;;;25.68;46.67;100330.44;20865394;28;20049;-68
2022/08/28 16:25:13;;;;;;;8.55;3.80;;;;;;;25.80;47.16;100325.00;20843518;28;20053;-69
2022/08/28 16:35:14;;;;;;;7.88;3.70;;;;;;;25.62;45.93;100331.78;20816397;28;20109;-69
2022/08/28 16:45:16;;;;;;;8.38;3.78;;;;;;;25.58;46.68;100324.94;20898568;28;20045;-69
2022/08/28 16:55:17;;;;;;;6.82;3.30;;;;;;;25.70;46.63;100334.72;20897597;28;20053;-69
2022/08/28 17:05:18;;;;;;;8.80;3.70;;;;;;;25.47;46.38;100322.28;20896497;28;20053;-69
2022/08/28 17:15:21;;;;;;;7.70;3.40;;;;;;;25.28;47.33;100320.19;20847086;28;20053;-69
2022/08/28 17:25:22;;;;;;;7.07;3.58;;;;;;;25.05;47.71;100338.03;20813040;28;20057;-69
2022/08/28 17:35:23;;;;;;;9.15;3.97;;;;;;;24.77;47.98;100331.28;20811701;28;20053;-69
2022/08/28 17:45:25;;;;;;;8.93;3.70;;;;;;;24.47;49.05;100337.09;20811698;28;20057;-69
2022/08/28 17:55:26;;;;;;;6.32;3.63;;;;;;;24.12;50.71;100347.69;20811008;28;20449;-70
2022/08/28 18:05:28;;;;;;;6.72;3.60;;;;;;;23.74;52.36;100354.84;20810391;28;20649;-69
2022/08/28 18:15:29;;;;;;;8.30;3.72;;;;;;;23.25;55.11;100366.28;20860097;28;20052;-69
2022/08/28 18:25:47;;;;;;;7.22;3.85;;;;;;;22.91;56.46;100382.91;20890971;28;20048;-69
2022/08/28 18:35:51;;;;;;;7.00;3.72;;;;;;;22.74;56.09;100383.97;20891892;28;20045;-69
2022/08/28 18:45:52;;;;;;;9.52;4.07;;;;;;;22.40;57.84;100401.34;20891660;28;20049;-69
2022/08/28 18:55:54;;;;;;;8.85;3.60;;;;;;;22.30;58.94;100411.75;20905853;28;20049;-69
2022/08/28 19:05:56;;;;;;;10.55;3.63;;;;;;;21.95;60.41;100421.97;20906252;28;20458;-69
2022/08/28 19:15:57;;;;;;;6.85;4.03;;;;;;;21.70;62.05;100434.16;20851119;28;20079;-69
2022/08/28 19:25:58;;;;;;;8.38;4.05;;;;;;;21.43;64.33;100443.81;20822064;28;20057;-69
2022/08/28 19:36:01;;;;;;;7.82;3.92;;;;;;;21.18;64.32;100453.25;20820977;28;20526;-69
2022/08/28 19:46:02;;;;;;;9.02;4.10;;;;;;;20.94;67.23;100465.34;20821159;28;20060;-69
2022/08/28 19:56:03;;;;;;;8.38;3.90;;;;;;;20.54;69.51;100472.03;20820794;28;20439;-69
2022/08/28 20:06:05;;;;;;;7.50;4.30;;;;;;;20.07;72.08;100488.75;20818223;28;20053;-69
2022/08/28 20:16:06;;;;;;;7.97;4.05;;;;;;;19.87;73.32;100484.50;20874029;28;20045;-69
2022/08/28 20:26:08;;;;;;;8.43;4.00;;;;;;;19.76;73.68;100478.91;20900414;28;20080;-69
2022/08/28 20:36:09;;;;;;;9.10;4.68;;;;;;;19.59;76.86;100491.22;20899210;28;20051;-69
2022/08/28 20:46:21;;;;;;;8.80;4.03;;;;;;;19.43;77.29;100495.63;20899249;28;20493;-69
2022/08/28 20:56:23;;;;;;;9.95;4.63;;;;;;;19.23;81.97;100502.78;20897776;28;20144;-69
2022/08/28 21:06:24;;;;;;;10.68;5.03;;;;;;;19.02;83.61;100516.25;20896533;28;20056;-69
2022/08/28 21:16:26;;;;;;;10.50;5.63;;;;;;;18.87;83.61;100515.19;20837446;28;20053;-69
2022/08/28 21:26:27;;;;;;;10.93;4.32;;;;;;;18.49;86.12;100520.47;20812765;28;20057;-69
2022/08/28 21:36:28;;;;;;;11.35;4.90;;;;;;;18.56;85.46;100521.94;20812199;28;20433;-69
2022/08/28 21:46:30;;;;;;;9.38;5.05;;;;;;;18.41;85.75;100527.97;20811776;28;20049;-68
2022/08/28 21:56:31;;;;;;;8.63;4.85;;;;;;;17.99;87.63;100539.56;20811160;28;20458;-68
2022/08/28 22:06:32;;;;;;;12.60;4.38;;;;;;;18.20;79.64;100545.69;20815160;28;20049;-68
2022/08/28 22:16:34;;;;;;;15.68;4.25;;;;;;;18.35;76.46;100549.41;20817554;28;20061;-68
2022/08/28 22:26:35;;;;;;;9.13;3.90;;;;;;;18.42;73.78;100546.44;20825680;28;20054;-68
2022/08/28 22:36:37;;;;;;;14.25;3.58;;;;;;;18.25;72.42;100548.97;20833171;28;20800;-68
2022/08/28 22:46:38;;;;;;;13.32;3.42;;;;;;;18.29;69.41;100555.00;20832599;28;20052;-68
2022/08/28 22:56:40;;;;;;;11.00;3.60;;;;;;;18.31;69.16;100555.81;20832313;28;20053;-68
2022/08/28 23:06:42;;;;;;;8.13;3.45;;;;;;;17.95;70.73;100575.91;20830763;28;20051;-68
2022/08/28 23:16:43;;;;;;;7.93;3.65;;;;;;;17.78;71.48;100553.75;20829628;28;20076;-68
2022/08/28 23:26:45;;;;;;;10.70;3.65;;;;;;;17.79;69.79;100566.06;20829490;28;20144;-68
2022/08/28 23:36:46;;;;;;;5.80;2.72;;;;;;;17.54;68.58;100564.41;20827297;28;20045;-68
2022/08/28 23:46:48;;;;;;;8.73;2.67;;;;;;;17.41;67.66;100569.34;20828508;28;20045;-68
2022/08/28 23:56:49;;;;;;;8.88;2.92;;;;;;;17.35;66.87;100574.06;20827438;28;20563;-68
